Etusivu
METAR-TAF:

METAR-TAF

Lentoasemat :

Monroe Municipal Airport

Monroe, Wisconsin, Yhdysvallat

Leveyspiiri: 42-36-54N, Pituuspiiri: 089-35-27W, korkeus merenpinnasta: 331 m

Tämänhetkinen sää

Tämä raportti tehtiin 16 minuuttia sitten, kello 12.15 UTC
Tuuli 4 kn pohjoisesta
Lämpötila 1°C
Kosteus 93%
Ilmanpaine 1018 hPa
Näkyvyys: 16.1 km
selkeää

METAR: KEFT 011215Z AUTO 01004KT 10SM CLR 01/00 A3006 RMK AO2 T00061002

Aika: 07:31 (12:31 UTC)


TAF: puuttuu

Säähavainnot ja -ennusteet yli 4000 lentoasemalta (METAR- ja TAF-raportit).

Käytössä olevat sääasemat on merkitty karttaan keltaisilla ja punaisilla pisteillä.

Aseta hiiri pisteen päälle nähdäksesi sääaseman nimen.

Klikkaa sitten nähdäksesi säähavainnot ja -ennusteet.

Kartan vaihtaminen: klikkaa mustalla rastilla varustettuja vihreitä pisteitä, niin voit zoomata sisään; viivalla varustettua vihreää pistettä, niin voit zoomata ulos tai vihreitä nuolia, niin pääset viereisille kartoille.


METAR-TAF: